Coral Coast — WDF5120 — position and weather

sailwx.info

Track history (hours):
 
Tides and Currents Weather Stations Pressure Air Temp Water Temp Dewpoint Dewpoint Depression Visibility Wind Speed Wind Dir Waves Ship Positions

Coral Coast

Owner: Dann MarineTowing, LC., Chesapeake City, MD. More information available from US FCC via Universal Licensing System and Coast Guard Vessel Documentation Center.

Last reported at 2016-Nov-05 21:33 UTC. Time now 2016-Dec-07 16:21 UTC.
Position N 36°45' W 075°53'.
Warning: this ship's position is 31 days out of date.

Length 70 m; draft 5.3 m.

Type: Tug. MMSI: 367459570.

Date/timePositionNaut miles runAvg speedWind from/ knotsBaromVisibWave heightAir tempDewpointWater temp
2016-Nov-05 21:33N 36°45' W 075°53'7 8.2
2016-Nov-05 20:43N 36°52' W 075°56'1 8.1
2016-Nov-05 20:33N 36°53' W 075°56'19 4.8
2016-Nov-05 16:32N 36°56' W 076°20'1 0.1
2016-Nov-05 12:33N 36°56' W 076°20'0 0.0
2016-Nov-05 11:33N 36°56' W 076°20'0 0.0
2016-Nov-05 10:33N 36°56' W 076°20'0 0.0
2016-Nov-05 09:33N 36°56' W 076°20'0 0.0
2016-Nov-05 08:27N 36°56' W 076°20'0 0.0
2016-Nov-05 07:33N 36°56' W 076°20'10 0.8
2016-Nov-04 18:28N 36°59' W 076°07'  
2016-Nov-01 03:33N 40°48' W 073°54'3 3.5
2016-Nov-01 02:33N 40°46' W 073°51'0 0.0
2016-Nov-01 00:33N 40°46' W 073°51'0 0.0
2016-Oct-31 23:33N 40°46' W 073°51'0 0.0
2016-Oct-31 22:33N 40°46' W 073°51'5 2.3
2016-Oct-31 20:34N 40°47' W 073°56'9 9.0
2016-Oct-31 19:33N 40°39' W 074°04'1 0.6
2016-Oct-31 18:33N 40°39' W 074°04'12 2.5
2016-Oct-31 13:33N 40°46' W 073°51'0 0.0
2016-Oct-31 12:33N 40°46' W 073°51'0 0.0
2016-Oct-31 10:33N 40°46' W 073°51'0 0.0
2016-Oct-31 09:33N 40°46' W 073°51'0 0.0
2016-Oct-31 08:33N 40°46' W 073°51'0 0.0
2016-Oct-31 07:33N 40°46' W 073°51'2 0.4
2016-Oct-31 03:33N 40°47' W 073°52'24 3.3
2016-Oct-30 20:21N 40°24' W 073°54'49 7.2
2016-Oct-30 13:33N 39°36' W 074°05'7 7.1
2016-Oct-30 12:33N 39°29' W 074°09'7 7.2
2016-Oct-30 11:33N 39°23' W 074°15'21 7.1
2016-Oct-30 08:33N 39°07' W 074°32'7 7.1
2016-Oct-30 07:33N 39°02' W 074°38'26 5.1
2016-Oct-30 02:33N 39°05' W 075°11'13 6.6
2016-Oct-30 00:33N 39°16' W 075°20'7 6.8
2016-Oct-29 23:33N 39°21' W 075°26'8 7.8
2016-Oct-29 22:34N 39°27' W 075°33'6 6.2
2016-Oct-29 21:33N 39°33' W 075°33'7 7.4
2016-Oct-29 20:33N 39°40' W 075°32'10 9.9
2016-Oct-29 19:33N 39°49' W 075°25'9 9.0
2016-Oct-29 18:33N 39°52' W 075°14'4 2.2
2016-Oct-29 16:33N 39°54' W 075°09'1 0.7
2016-Oct-29 14:33N 39°55' W 075°08'0 0.0
2016-Oct-29 11:33N 39°55' W 075°08'0 0.0
2016-Oct-29 09:33N 39°55' W 075°08'0 0.0
2016-Oct-29 06:33N 39°55' W 075°08'0 0.0
2016-Oct-29 04:33N 39°55' W 075°08'7 3.4
2016-Oct-29 02:33N 39°51' W 075°15'23 7.6
2016-Oct-28 23:33N 39°33' W 075°32'17 8.5
2016-Oct-28 21:33N 39°18' W 075°23'17 8.6
2016-Oct-28 19:33N 39°04' W 075°10'64 6.4
2016-Oct-28 09:33N 39°40' W 074°02'8 8.4
2016-Oct-28 08:33N 39°48' W 073°58'59 7.3
2016-Oct-28 00:33N 40°47' W 073°51'1 0.8
2016-Oct-27 23:33N 40°46' W 073°51'0 0.0
2016-Oct-27 21:33N 40°46' W 073°51'0 0.0
2016-Oct-27 17:33N 40°46' W 073°51'0 0.0
2016-Oct-27 15:33N 40°46' W 073°51'0 0.0
2016-Oct-27 11:33N 40°46' W 073°51'0 0.0
2016-Oct-27 09:33N 40°46' W 073°51'0 0.0
2016-Oct-27 05:33N 40°46' W 073°51'0 0.0
2016-Oct-27 04:33N 40°46' W 073°51'0 0.0
2016-Oct-27 03:33N 40°46' W 073°51'0 0.0
2016-Oct-27 00:33N 40°46' W 073°51'  
Track history (hours):
 
Tides and Currents Weather Stations Pressure Air Temp Water Temp Dewpoint Dewpoint Depression Visibility Wind Speed Wind Dir Waves Ship Positions

Coral Coast

Owner: Dann MarineTowing, LC., Chesapeake City, MD. More information available from US FCC via Universal Licensing System and Coast Guard Vessel Documentation Center.

Last reported at 2016-Nov-05 21:33 UTC. Time now 2016-Dec-07 16:21 UTC.
Position N 36°45' W 075°53'.
Warning: this ship's position is 31 days out of date.

Length 70 m; draft 5.3 m.

Type: Tug. MMSI: 367459570.

Date/timePositionNaut miles runAvg speedWind from/ knotsBaromVisibWave heightAir tempDewpointWater temp
2016-Nov-05 21:33N 36°45' W 075°53'7 8.2
2016-Nov-05 20:43N 36°52' W 075°56'1 8.1
2016-Nov-05 20:33N 36°53' W 075°56'19 4.8
2016-Nov-05 16:32N 36°56' W 076°20'1 0.1
2016-Nov-05 12:33N 36°56' W 076°20'0 0.0
2016-Nov-05 11:33N 36°56' W 076°20'0 0.0
2016-Nov-05 10:33N 36°56' W 076°20'0 0.0
2016-Nov-05 09:33N 36°56' W 076°20'0 0.0
2016-Nov-05 08:27N 36°56' W 076°20'0 0.0
2016-Nov-05 07:33N 36°56' W 076°20'10 0.8
2016-Nov-04 18:28N 36°59' W 076°07'  
2016-Nov-01 03:33N 40°48' W 073°54'3 3.5
2016-Nov-01 02:33N 40°46' W 073°51'0 0.0
2016-Nov-01 00:33N 40°46' W 073°51'0 0.0
2016-Oct-31 23:33N 40°46' W 073°51'0 0.0
2016-Oct-31 22:33N 40°46' W 073°51'5 2.3
2016-Oct-31 20:34N 40°47' W 073°56'9 9.0
2016-Oct-31 19:33N 40°39' W 074°04'1 0.6
2016-Oct-31 18:33N 40°39' W 074°04'12 2.5
2016-Oct-31 13:33N 40°46' W 073°51'0 0.0
2016-Oct-31 12:33N 40°46' W 073°51'0 0.0
2016-Oct-31 10:33N 40°46' W 073°51'0 0.0
2016-Oct-31 09:33N 40°46' W 073°51'0 0.0
2016-Oct-31 08:33N 40°46' W 073°51'0 0.0
2016-Oct-31 07:33N 40°46' W 073°51'2 0.4
2016-Oct-31 03:33N 40°47' W 073°52'24 3.3
2016-Oct-30 20:21N 40°24' W 073°54'49 7.2
2016-Oct-30 13:33N 39°36' W 074°05'7 7.1
2016-Oct-30 12:33N 39°29' W 074°09'7 7.2
2016-Oct-30 11:33N 39°23' W 074°15'21 7.1
2016-Oct-30 08:33N 39°07' W 074°32'7 7.1
2016-Oct-30 07:33N 39°02' W 074°38'26 5.1
2016-Oct-30 02:33N 39°05' W 075°11'13 6.6
2016-Oct-30 00:33N 39°16' W 075°20'7 6.8
2016-Oct-29 23:33N 39°21' W 075°26'8 7.8
2016-Oct-29 22:34N 39°27' W 075°33'6 6.2
2016-Oct-29 21:33N 39°33' W 075°33'7 7.4
2016-Oct-29 20:33N 39°40' W 075°32'10 9.9
2016-Oct-29 19:33N 39°49' W 075°25'9 9.0
2016-Oct-29 18:33N 39°52' W 075°14'4 2.2
2016-Oct-29 16:33N 39°54' W 075°09'1 0.7
2016-Oct-29 14:33N 39°55' W 075°08'0 0.0
2016-Oct-29 11:33N 39°55' W 075°08'0 0.0
2016-Oct-29 09:33N 39°55' W 075°08'0 0.0
2016-Oct-29 06:33N 39°55' W 075°08'0 0.0
2016-Oct-29 04:33N 39°55' W 075°08'7 3.4
2016-Oct-29 02:33N 39°51' W 075°15'23 7.6
2016-Oct-28 23:33N 39°33' W 075°32'17 8.5
2016-Oct-28 21:33N 39°18' W 075°23'17 8.6
2016-Oct-28 19:33N 39°04' W 075°10'64 6.4
2016-Oct-28 09:33N 39°40' W 074°02'8 8.4
2016-Oct-28 08:33N 39°48' W 073°58'59 7.3
2016-Oct-28 00:33N 40°47' W 073°51'1 0.8
2016-Oct-27 23:33N 40°46' W 073°51'0 0.0
2016-Oct-27 21:33N 40°46' W 073°51'0 0.0
2016-Oct-27 17:33N 40°46' W 073°51'0 0.0
2016-Oct-27 15:33N 40°46' W 073°51'0 0.0
2016-Oct-27 11:33N 40°46' W 073°51'0 0.0
2016-Oct-27 09:33N 40°46' W 073°51'0 0.0
2016-Oct-27 05:33N 40°46' W 073°51'0 0.0
2016-Oct-27 04:33N 40°46' W 073°51'0 0.0
2016-Oct-27 03:33N 40°46' W 073°51'0 0.0
2016-Oct-27 00:33N 40°46' W 073°51'  

Dump ship's entire track history